Time;durP1;ratioP1;P1;durP2;ratioP2;P2;SDS_P1;SDS_P2;PMS_P1;PMS_P2;Temp;Humidity;BMP_temperature;BMP_pressure;BME280_temperature;BME280_humidity;BME280_pressure;Samples;Min_cycle;Max_cycle;Signal;HPM_P1;HPM_P2
2021/11/06 00:02:20;;;;;;;11.00;9.52;;;;;;;1.67;95.09;96677.59;5088498;28;20032;-52
2021/11/06 00:04:45;;;;;;;20.38;13.10;;;;;;;1.64;95.68;96682.03;5089067;28;20043;-52
2021/11/06 00:07:11;;;;;;;9.07;7.80;;;;;;;1.59;95.87;96695.19;5088854;28;20040;-52
2021/11/06 00:09:36;;;;;;;8.98;7.07;;;;;;;1.51;96.01;96684.28;5088810;28;20024;-52
2021/11/06 00:12:03;;;;;;;8.73;7.80;;;;;;;1.48;96.02;96690.44;5089426;28;20525;-52
2021/11/06 00:14:28;;;;;;;10.65;7.40;;;;;;;1.48;95.84;96695.63;5088195;28;20094;-50
2021/11/06 00:16:54;;;;;;;8.00;6.60;;;;;;;1.47;95.16;96685.31;5086230;28;20051;-50
2021/11/06 00:19:20;;;;;;;7.70;6.93;;;;;;;1.47;94.76;96687.91;5088892;28;20048;-55
2021/11/06 00:21:45;;;;;;;6.82;6.10;;;;;;;1.41;95.65;96682.03;5088482;28;20028;-52
2021/11/06 00:24:11;;;;;;;7.50;6.32;;;;;;;1.33;96.07;96689.31;5088661;28;20528;-54
2021/11/06 00:26:37;;;;;;;7.05;5.88;;;;;;;1.31;95.82;96685.94;5088269;28;20062;-51
2021/11/06 00:29:04;;;;;;;11.32;8.35;;;;;;;1.27;95.06;96684.38;5088416;28;20418;-48
2021/11/06 00:31:29;;;;;;;12.07;8.02;;;;;;;1.19;96.01;96689.00;5086686;28;20028;-52
2021/11/06 00:33:55;;;;;;;10.55;8.60;;;;;;;1.13;96.13;96682.31;5088323;28;20046;-49
2021/11/06 00:36:20;;;;;;;29.00;18.83;;;;;;;1.15;96.31;96683.09;5085532;28;20138;-54
2021/11/06 00:38:46;;;;;;;20.73;11.85;;;;;;;1.19;94.76;96683.78;5083419;28;20032;-54
2021/11/06 00:41:11;;;;;;;10.73;8.30;;;;;;;1.24;95.50;96679.28;5068422;28;20518;-55
2021/11/06 00:43:37;;;;;;;10.80;7.65;;;;;;;1.27;95.14;96680.00;5068281;28;20032;-54
2021/11/06 00:46:03;;;;;;;6.32;5.72;;;;;;;1.19;97.01;96682.06;5068367;28;20043;-54
2021/11/06 00:48:28;;;;;;;8.32;6.70;;;;;;;1.14;96.57;96679.63;5068008;28;20119;-55
2021/11/06 00:50:53;;;;;;;9.55;7.18;;;;;;;1.12;96.29;96678.03;5067843;28;20039;-54
2021/11/06 00:53:19;;;;;;;9.40;5.57;;;;;;;1.12;95.58;96685.81;5067711;28;20028;-54
2021/11/06 00:55:44;;;;;;;9.75;6.82;;;;;;;1.13;95.62;96687.50;5074154;28;20384;-54
2021/11/06 00:58:10;;;;;;;16.92;9.88;;;;;;;1.13;95.96;96682.31;5088277;28;20024;-55
2021/11/06 01:00:35;;;;;;;14.80;8.85;;;;;;;1.11;95.91;96684.94;5087833;28;20074;-54
2021/11/06 01:03:01;;;;;;;14.05;9.13;;;;;;;1.11;95.88;96682.34;5087622;28;20089;-54
2021/11/06 01:05:26;;;;;;;8.55;6.95;;;;;;;1.13;96.15;96683.13;5088200;28;20086;-50
2021/11/06 01:07:51;;;;;;;6.18;5.57;;;;;;;1.09;96.88;96691.94;5088087;28;20454;-50
2021/11/06 01:10:18;;;;;;;6.28;5.25;;;;;;;1.03;96.51;96688.75;5087962;28;20039;-51
2021/11/06 01:12:44;;;;;;;6.25;5.20;;;;;;;0.98;96.49;96689.75;5084761;28;20111;-55
2021/11/06 01:15:12;;;;;;;11.25;6.88;;;;;;;0.93;97.19;96690.84;5088518;28;20107;-52
2021/11/06 01:17:38;;;;;;;7.30;6.10;;;;;;;0.89;97.41;96694.44;5057256;28;20521;-52
2021/11/06 01:20:06;;;;;;;7.13;6.43;;;;;;;0.83;97.17;96693.78;5085258;28;20407;-55
2021/11/06 01:22:31;;;;;;;10.85;6.85;;;;;;;0.80;96.96;96696.50;5087901;28;20467;-53
2021/11/06 01:24:57;;;;;;;11.05;7.55;;;;;;;0.79;97.79;96699.13;5086864;28;20032;-54
2021/11/06 01:27:23;;;;;;;11.43;8.73;;;;;;;0.73;97.46;96694.19;5087613;28;20446;-52
2021/11/06 01:29:48;;;;;;;72.28;31.90;;;;;;;0.70;97.46;96695.13;5087452;28;20107;-54
2021/11/06 01:32:14;;;;;;;79.45;36.45;;;;;;;0.65;97.38;96697.06;5087478;28;20035;-53
2021/11/06 01:34:40;;;;;;;48.58;25.80;;;;;;;0.59;97.97;96699.88;5087027;28;20119;-53
2021/11/06 01:37:05;;;;;;;31.92;18.80;;;;;;;0.59;97.82;96702.47;5087062;28;20032;-48
2021/11/06 01:39:31;;;;;;;28.70;18.73;;;;;;;0.57;97.76;96711.16;5085269;28;20234;-51
2021/11/06 01:41:56;;;;;;;33.58;19.90;;;;;;;0.49;97.38;96709.72;5087209;28;20042;-52
2021/11/06 01:44:24;;;;;;;22.90;14.90;;;;;;;0.45;97.26;96711.56;5078368;28;20055;-51
2021/11/06 01:46:52;;;;;;;23.20;14.23;;;;;;;0.39;98.21;96706.63;5088445;28;20119;-55
2021/11/06 01:49:20;;;;;;;14.88;11.48;;;;;;;0.40;97.51;96703.13;5088389;28;20105;-49
2021/11/06 01:51:47;;;;;;;11.50;9.80;;;;;;;0.42;98.08;96712.50;5091504;28;20044;-49
2021/11/06 01:54:13;;;;;;;12.10;10.80;;;;;;;0.42;97.41;96707.34;5091943;28;20040;-51
2021/11/06 01:56:39;;;;;;;12.85;10.52;;;;;;;0.45;97.60;96710.75;5092189;28;20040;-50
2021/11/06 01:59:04;;;;;;;13.25;10.07;;;;;;;0.41;97.83;96715.19;5093285;28;20036;-50
2021/11/06 02:01:29;;;;;;;10.80;9.13;;;;;;;0.43;97.93;96709.03;5079492;28;20033;-49
2021/11/06 02:03:55;;;;;;;9.13;7.50;;;;;;;0.47;97.70;96711.53;5088161;28;20039;-49
2021/11/06 02:06:20;;;;;;;7.43;6.22;;;;;;;0.49;97.61;96705.38;5090881;28;20036;-49
2021/11/06 02:08:46;;;;;;;7.40;6.70;;;;;;;0.47;97.94;96709.78;5092047;28;20400;-50
2021/11/06 02:11:12;;;;;;;7.07;6.38;;;;;;;0.46;97.49;96708.09;5092113;28;20553;-50
2021/11/06 02:13:37;;;;;;;6.82;6.15;;;;;;;0.48;96.74;96703.69;5088127;28;20533;-48
2021/11/06 02:16:03;;;;;;;9.30;7.60;;;;;;;0.48;98.32;96711.47;5089177;28;20032;-49
2021/11/06 02:18:28;;;;;;;7.20;6.50;;;;;;;0.49;98.47;96710.56;5091891;28;20123;-49
2021/11/06 02:21:08;;;;;;;6.68;6.05;;;;;;;0.52;99.04;96718.22;5080167;28;20042;-48
2021/11/06 02:23:39;;;;;;;6.82;6.22;;;;;;;0.54;98.47;96715.59;5080968;28;20090;-48
2021/11/06 02:26:08;;;;;;;6.47;5.78;;;;;;;0.51;98.24;96703.56;5089432;28;20407;-50
2021/11/06 02:28:33;;;;;;;6.80;6.20;;;;;;;0.48;98.18;96705.44;5092111;28;20046;-50
2021/11/06 02:30:59;;;;;;;6.05;5.50;;;;;;;0.43;98.25;96708.19;5091044;28;20563;-50
2021/11/06 02:33:24;;;;;;;5.30;4.80;;;;;;;0.42;97.87;96709.09;5089836;28;20036;-48
2021/11/06 02:35:50;;;;;;;4.78;4.38;;;;;;;0.41;97.87;96712.59;5090535;28;20032;-51
2021/11/06 02:38:16;;;;;;;5.55;4.93;;;;;;;0.43;97.74;96713.38;5090499;28;20039;-51
2021/11/06 02:40:41;;;;;;;4.85;4.45;;;;;;;0.40;97.90;96716.06;5072073;28;20051;-49
2021/11/06 02:43:09;;;;;;;5.38;4.55;;;;;;;0.35;97.98;96710.22;5070858;28;20529;-49
2021/11/06 02:45:34;;;;;;;4.95;4.55;;;;;;;0.32;98.11;96710.31;5068181;28;20036;-49
2021/11/06 02:47:59;;;;;;;5.93;4.10;;;;;;;0.29;98.06;96711.28;5071053;28;20031;-49
2021/11/06 02:50:25;;;;;;;4.18;3.83;;;;;;;0.31;97.53;96725.03;5069534;28;20079;-51
2021/11/06 02:52:50;;;;;;;4.15;3.75;;;;;;;0.30;97.52;96718.16;5072463;28;20059;-48
2021/11/06 02:55:16;;;;;;;3.88;3.50;;;;;;;0.25;97.44;96715.72;5053317;28;20036;-49
2021/11/06 02:57:41;;;;;;;7.68;3.70;;;;;;;0.24;98.23;96721.78;5066723;28;20081;-49
2021/11/06 03:00:09;;;;;;;3.58;3.38;;;;;;;0.24;97.55;96720.97;5070915;28;20514;-49
2021/11/06 03:02:35;;;;;;;3.58;3.03;;;;;;;0.29;97.29;96726.81;5070984;28;20445;-47
2021/11/06 03:05:06;;;;;;;4.25;3.50;;;;;;;0.24;97.02;96720.97;5071085;28;20107;-49
2021/11/06 03:07:31;;;;;;;4.07;3.67;;;;;;;0.20;97.65;96722.78;5071264;28;20056;-47
2021/11/06 03:09:57;;;;;;;3.72;3.42;;;;;;;0.21;97.72;96727.06;5071212;28;20060;-50
2021/11/06 03:12:22;;;;;;;4.40;4.00;;;;;;;0.19;97.58;96733.19;5070007;28;20075;-51
2021/11/06 03:14:48;;;;;;;4.28;3.83;;;;;;;0.22;97.12;96725.31;5070247;28;20028;-52
2021/11/06 03:17:13;;;;;;;4.25;3.95;;;;;;;0.23;97.45;96719.28;5070575;28;20070;-48
2021/11/06 03:19:39;;;;;;;4.72;4.00;;;;;;;0.25;97.05;96726.06;5070085;28;20538;-48
2021/11/06 03:22:06;;;;;;;4.47;3.90;;;;;;;0.24;96.71;96724.38;5070462;28;20016;-48
2021/11/06 03:24:32;;;;;;;5.13;3.38;;;;;;;0.19;96.62;96726.28;5071155;28;20518;-51
2021/11/06 03:26:57;;;;;;;3.70;3.33;;;;;;;0.18;97.81;96723.72;5051534;28;20025;-52
2021/11/06 03:29:22;;;;;;;4.00;3.70;;;;;;;0.14;97.73;96723.03;5070041;28;20032;-48
2021/11/06 03:31:48;;;;;;;3.67;3.38;;;;;;;0.11;98.06;96718.78;5069799;28;20163;-54
2021/11/06 03:34:13;;;;;;;4.05;3.75;;;;;;;0.10;98.10;96724.84;5071036;28;20063;-52
2021/11/06 03:36:40;;;;;;;5.07;3.25;;;;;;;0.06;98.57;96720.69;5068870;28;20074;-51
2021/11/06 03:39:05;;;;;;;4.13;3.72;;;;;;;0.03;98.47;96714.75;5071554;28;20517;-48
2021/11/06 03:41:31;;;;;;;4.15;3.85;;;;;;;-0.02;97.98;96715.75;5090692;28;20040;-49
2021/11/06 03:43:57;;;;;;;4.15;3.83;;;;;;;-0.07;98.44;96712.50;5090469;28;20039;-49
2021/11/06 03:46:22;;;;;;;5.90;4.03;;;;;;;-0.09;97.70;96716.00;5090475;28;20051;-51
2021/11/06 03:48:48;;;;;;;5.30;3.58;;;;;;;-0.06;97.84;96723.66;5085888;28;20041;-48
2021/11/06 03:51:13;;;;;;;4.45;3.97;;;;;;;-0.06;97.79;96721.09;5087513;28;20490;-49
2021/11/06 03:53:39;;;;;;;3.45;3.13;;;;;;;-0.07;97.84;96714.22;5090388;28;20043;-48
2021/11/06 03:56:05;;;;;;;3.92;3.60;;;;;;;-0.10;97.76;96720.34;5090300;28;20075;-48
2021/11/06 03:58:30;;;;;;;5.75;3.92;;;;;;;-0.16;97.92;96717.94;5089698;28;20062;-55
2021/11/06 04:00:56;;;;;;;3.78;3.40;;;;;;;-0.23;98.08;96709.53;5090537;28;20036;-54
2021/11/06 04:03:21;;;;;;;4.30;4.00;;;;;;;-0.28;97.81;96718.38;5089045;28;20036;-48
2021/11/06 04:05:46;;;;;;;3.88;3.50;;;;;;;-0.34;98.40;96711.66;5088240;28;20020;-49
2021/11/06 04:08:12;;;;;;;4.18;3.88;;;;;;;-0.36;97.88;96719.44;5089990;28;20383;-51
2021/11/06 04:10:37;;;;;;;4.45;4.05;;;;;;;-0.41;98.28;96718.75;5090038;28;20032;-49
2021/11/06 04:13:03;;;;;;;4.57;3.97;;;;;;;-0.40;97.75;96714.44;5089215;28;20106;-54
2021/11/06 04:15:29;;;;;;;4.10;3.70;;;;;;;-0.41;98.12;96726.50;5089040;28;20533;-54
2021/11/06 04:17:55;;;;;;;3.92;3.63;;;;;;;-0.43;98.59;96723.13;5086893;28;20035;-52
2021/11/06 04:20:21;;;;;;;4.30;4.00;;;;;;;-0.42;98.26;96718.81;5089935;28;20039;-49
2021/11/06 04:22:50;;;;;;;4.57;4.28;;;;;;;-0.41;98.41;96716.16;5089974;28;20043;-51
2021/11/06 04:25:16;;;;;;;3.72;3.42;;;;;;;-0.44;97.77;96721.44;5089603;28;20059;-49
2021/11/06 04:27:41;;;;;;;4.25;3.65;;;;;;;-0.44;97.60;96722.31;5088074;28;20040;-49
2021/11/06 04:30:07;;;;;;;3.72;3.45;;;;;;;-0.42;98.64;96724.81;5091540;28;20107;-50
2021/11/06 04:32:33;;;;;;;3.92;3.63;;;;;;;-0.40;98.47;96728.22;5089133;28;20032;-50
2021/11/06 04:34:58;;;;;;;3.35;3.15;;;;;;;-0.39;98.84;96723.91;5089823;28;20044;-49
2021/11/06 04:37:24;;;;;;;3.78;3.15;;;;;;;-0.39;99.12;96729.91;5089663;28;20460;-51
2021/11/06 04:39:49;;;;;;;5.07;3.63;;;;;;;-0.38;99.27;96736.75;5076885;28;20120;-52
2021/11/06 04:42:14;;;;;;;3.95;3.63;;;;;;;-0.36;99.17;96734.97;5068535;28;20032;-53
2021/11/06 04:44:40;;;;;;;3.70;3.40;;;;;;;-0.33;100.00;96731.44;5068666;28;20036;-50
2021/11/06 04:47:05;;;;;;;3.53;3.33;;;;;;;-0.23;100.00;96737.19;5070639;28;20032;-49
2021/11/06 04:49:31;;;;;;;3.72;3.42;;;;;;;-0.15;99.32;96737.75;5089353;28;20261;-53
2021/11/06 04:51:56;;;;;;;3.70;3.50;;;;;;;-0.12;99.32;96736.81;5088930;28;20040;-52
2021/11/06 04:54:23;;;;;;;3.95;3.65;;;;;;;-0.07;99.86;96735.78;5088770;28;20093;-53
2021/11/06 04:56:50;;;;;;;3.47;3.17;;;;;;;-0.03;99.32;96742.56;5085234;28;20530;-51
2021/11/06 04:59:15;;;;;;;6.05;3.42;;;;;;;-0.03;99.05;96737.38;5088647;28;20275;-53
2021/11/06 05:01:41;;;;;;;3.63;3.33;;;;;;;-0.03;99.39;96732.19;5089051;28;20059;-49
2021/11/06 05:04:06;;;;;;;3.45;3.25;;;;;;;-0.03;99.48;96739.97;5089250;28;20055;-48
2021/11/06 05:06:32;;;;;;;3.88;3.58;;;;;;;0.06;99.10;96743.13;5086483;28;20109;-54
2021/11/06 05:08:58;;;;;;;3.97;3.67;;;;;;;0.06;98.08;96737.94;5089289;28;20127;-55
2021/11/06 05:11:23;;;;;;;5.40;5.00;;;;;;;0.07;98.45;96740.50;5086652;28;20467;-51
2021/11/06 05:13:50;;;;;;;4.53;4.22;;;;;;;0.06;98.30;96745.72;5077742;28;20044;-50
2021/11/06 05:16:15;;;;;;;6.72;4.00;;;;;;;0.09;98.18;96745.63;5088630;28;20036;-53
2021/11/06 05:18:41;;;;;;;4.03;3.72;;;;;;;0.11;97.02;96744.66;5087619;28;20123;-48
2021/11/06 05:21:07;;;;;;;3.33;3.00;;;;;;;0.12;97.71;96745.53;5084950;28;20499;-54
2021/11/06 05:23:32;;;;;;;3.55;3.35;;;;;;;0.12;97.69;96741.19;5086014;28;20047;-55
2021/11/06 05:25:57;;;;;;;6.10;3.53;;;;;;;0.13;97.81;96742.03;5088344;28;20036;-54
2021/11/06 05:28:23;;;;;;;3.90;3.60;;;;;;;0.07;97.45;96737.91;5086639;28;20031;-48
2021/11/06 05:30:48;;;;;;;3.92;3.63;;;;;;;0.07;98.89;96744.81;5088629;28;20107;-48
2021/11/06 05:33:14;;;;;;;3.85;3.55;;;;;;;0.08;99.24;96741.31;5087343;28;20036;-50
2021/11/06 05:35:40;;;;;;;4.75;4.35;;;;;;;0.09;99.56;96746.47;5086492;28;20032;-49
2021/11/06 05:38:05;;;;;;;5.93;4.03;;;;;;;0.12;99.15;96740.34;5083143;28;20496;-49
2021/11/06 05:40:31;;;;;;;4.22;3.80;;;;;;;0.14;99.25;96744.56;5066134;28;20040;-48
2021/11/06 05:42:56;;;;;;;3.88;3.67;;;;;;;0.18;99.38;96747.91;5064914;28;20064;-48
2021/11/06 05:45:21;;;;;;;4.38;3.97;;;;;;;0.21;99.28;96750.38;5068780;28;20123;-50
2021/11/06 05:47:47;;;;;;;4.35;3.70;;;;;;;0.23;100.00;96751.19;5068225;28;20031;-48
2021/11/06 05:50:14;;;;;;;3.50;3.30;;;;;;;0.28;99.81;96740.66;5065326;28;20451;-51
2021/11/06 05:52:40;;;;;;;4.05;3.75;;;;;;;0.35;100.00;96742.13;5065404;28;20033;-54
2021/11/06 05:55:07;;;;;;;3.47;3.28;;;;;;;0.38;99.94;96746.38;5068025;28;20037;-55
2021/11/06 05:57:35;;;;;;;4.70;3.40;;;;;;;0.41;100.00;96754.03;5064616;28;20025;-48
2021/11/06 06:00:05;;;;;;;4.50;4.10;;;;;;;0.44;99.82;96746.16;5065501;28;20103;-55
2021/11/06 06:02:30;;;;;;;3.42;3.20;;;;;;;0.49;99.54;96754.59;5062966;28;20032;-52
2021/11/06 06:04:56;;;;;;;3.80;3.50;;;;;;;0.55;99.08;96757.00;5067767;28;20033;-48
2021/11/06 06:07:21;;;;;;;4.22;3.72;;;;;;;0.60;100.00;96756.00;5067519;28;20118;-49
2021/11/06 06:09:46;;;;;;;3.65;3.35;;;;;;;0.64;98.69;96762.75;5067501;28;20507;-54
2021/11/06 06:12:12;;;;;;;3.60;3.30;;;;;;;0.68;98.73;96769.53;5068278;28;20407;-51
2021/11/06 06:14:37;;;;;;;4.38;3.97;;;;;;;0.70;98.43;96773.75;5050348;28;20127;-50
2021/11/06 06:17:03;;;;;;;4.10;3.80;;;;;;;0.74;98.16;96771.88;5068592;28;20039;-48
2021/11/06 06:19:29;;;;;;;3.80;3.55;;;;;;;0.79;99.32;96774.31;5065244;28;20025;-55
2021/11/06 06:21:55;;;;;;;4.55;3.85;;;;;;;0.81;99.07;96775.09;5065560;28;20566;-54
2021/11/06 06:24:20;;;;;;;4.88;4.57;;;;;;;0.83;98.37;96775.91;5067730;28;20449;-53
2021/11/06 06:26:46;;;;;;;4.30;4.00;;;;;;;0.83;98.02;96776.75;5067895;28;20036;-53
2021/11/06 06:29:11;;;;;;;3.25;3.05;;;;;;;0.84;97.53;96780.19;5064679;28;20029;-49
2021/11/06 06:31:37;;;;;;;3.70;3.40;;;;;;;0.81;97.76;96780.28;5066597;28;20036;-49
2021/11/06 06:34:02;;;;;;;3.83;3.45;;;;;;;0.79;98.55;96780.38;5067592;28;20534;-48
2021/11/06 06:36:28;;;;;;;3.67;3.47;;;;;;;0.79;98.39;96790.75;5067825;28;20048;-49
2021/11/06 06:38:53;;;;;;;3.58;3.22;;;;;;;0.83;98.72;96789.72;5069072;28;20032;-49
2021/11/06 06:41:18;;;;;;;4.75;3.67;;;;;;;0.85;97.95;96793.09;5070806;28;20083;-49
2021/11/06 06:43:44;;;;;;;3.85;3.55;;;;;;;0.87;97.56;96787.00;5070271;28;20045;-50
2021/11/06 06:46:09;;;;;;;3.67;3.47;;;;;;;0.94;97.60;96791.06;5066201;28;20446;-48
2021/11/06 06:48:35;;;;;;;4.80;4.40;;;;;;;1.03;96.56;96805.44;5072040;28;20032;-48
2021/11/06 06:51:00;;;;;;;6.03;5.43;;;;;;;1.04;95.94;96800.22;5067426;28;20028;-53
2021/11/06 06:53:25;;;;;;;5.35;4.85;;;;;;;1.06;96.20;96802.75;5052828;28;20082;-49
2021/11/06 06:55:51;;;;;;;4.97;4.57;;;;;;;1.07;96.21;96801.84;5062138;28;20519;-48
2021/11/06 06:58:17;;;;;;;4.95;4.55;;;;;;;1.10;96.48;96806.91;5070405;28;20542;-48
2021/11/06 07:00:42;;;;;;;5.00;4.65;;;;;;;1.13;96.13;96812.00;5067245;28;20036;-48
2021/11/06 07:03:07;;;;;;;7.22;6.53;;;;;;;1.17;96.38;96818.78;5069748;28;21577;-53
2021/11/06 07:05:33;;;;;;;6.53;5.97;;;;;;;1.22;96.40;96810.84;5071198;28;20403;-50
2021/11/06 07:07:58;;;;;;;5.45;5.05;;;;;;;1.27;96.08;96814.91;5066841;28;20029;-52
2021/11/06 07:10:25;;;;;;;6.20;5.60;;;;;;;1.30;96.23;96821.75;5069092;28;20044;-52
2021/11/06 07:12:51;;;;;;;6.40;5.43;;;;;;;1.34;96.54;96817.31;5068417;28;20111;-52
2021/11/06 07:15:17;;;;;;;23.67;11.73;;;;;;;1.39;96.65;96824.00;5061674;28;20037;-52
2021/11/06 07:17:42;;;;;;;5.32;4.85;;;;;;;1.45;96.08;96827.28;5069972;28;20028;-51
2021/11/06 07:20:09;;;;;;;6.25;5.18;;;;;;;1.51;95.39;96832.25;5070843;28;20039;-53
2021/11/06 07:22:35;;;;;;;6.53;5.68;;;;;;;1.57;95.71;96832.84;5071115;28;20036;-50
2021/11/06 07:25:01;;;;;;;5.15;4.75;;;;;;;1.64;95.95;96825.66;5070300;28;20044;-52
2021/11/06 07:27:26;;;;;;;6.18;5.57;;;;;;;1.69;94.49;96826.34;5070841;28;20043;-52
2021/11/06 07:29:51;;;;;;;6.25;5.65;;;;;;;1.76;94.42;96832.13;5069089;28;20089;-48
2021/11/06 07:32:20;;;;;;;5.78;5.18;;;;;;;1.82;94.21;96825.84;5068872;28;20396;-51
2021/11/06 07:34:46;;;;;;;5.95;5.45;;;;;;;1.89;93.86;96826.47;5068556;28;20082;-54
2021/11/06 07:37:12;;;;;;;5.32;4.93;;;;;;;1.93;93.72;96841.88;5065609;28;20446;-53
2021/11/06 07:39:37;;;;;;;5.78;5.18;;;;;;;1.98;93.40;96839.06;5068619;28;20036;-47
2021/11/06 07:42:03;;;;;;;6.57;4.85;;;;;;;2.03;93.45;96844.97;5085170;28;20051;-48
2021/11/06 07:44:28;;;;;;;4.90;4.50;;;;;;;2.08;93.67;96836.97;5090756;28;20032;-51
2021/11/06 07:46:53;;;;;;;5.38;4.78;;;;;;;2.13;93.39;96845.44;5090502;28;20067;-46
2021/11/06 07:49:19;;;;;;;8.55;4.70;;;;;;;2.13;93.56;96845.44;5089663;28;20052;-47
2021/11/06 07:51:44;;;;;;;5.40;4.90;;;;;;;2.11;93.80;96852.44;5090480;28;20154;-46
2021/11/06 07:54:10;;;;;;;7.15;6.45;;;;;;;2.11;93.59;96855.06;5086456;28;20040;-52
2021/11/06 07:56:38;;;;;;;9.90;8.93;;;;;;;2.06;92.33;96859.56;5084627;28;20101;-50
2021/11/06 07:59:03;;;;;;;10.13;9.07;;;;;;;2.04;93.32;96858.78;5088232;28;20032;-51
2021/11/06 08:01:29;;;;;;;7.78;6.95;;;;;;;2.07;92.72;96861.25;5088618;28;20178;-51
2021/11/06 08:03:55;;;;;;;7.30;6.60;;;;;;;1.93;92.17;96869.59;5082592;28;20029;-46
2021/11/06 08:06:21;;;;;;;7.53;6.70;;;;;;;1.85;92.28;96867.28;5086325;28;20032;-46
2021/11/06 08:08:46;;;;;;;11.00;5.38;;;;;;;1.81;92.33;96865.72;5090364;28;20036;-51
2021/11/06 08:11:11;;;;;;;5.65;5.15;;;;;;;1.85;93.21;96878.53;5089168;28;20038;-50
2021/11/06 08:13:37;;;;;;;5.25;4.75;;;;;;;1.86;92.64;96877.63;5078388;28;20120;-53
2021/11/06 08:16:02;;;;;;;6.10;5.60;;;;;;;1.84;92.34;96884.63;5083679;28;20044;-52
2021/11/06 08:18:29;;;;;;;5.97;5.07;;;;;;;1.88;91.74;96874.97;5087387;28;20038;-53
2021/11/06 08:20:55;;;;;;;7.07;5.00;;;;;;;1.93;91.88;96880.84;5087485;28;20035;-48
2021/11/06 08:23:21;;;;;;;5.28;4.88;;;;;;;1.96;91.73;96877.25;5086974;28;20031;-49
2021/11/06 08:25:47;;;;;;;7.10;6.50;;;;;;;1.95;91.87;96871.22;5088471;28;20039;-53
2021/11/06 08:28:13;;;;;;;7.30;6.70;;;;;;;1.95;91.88;96872.97;5084154;28;20098;-52
2021/11/06 08:30:38;;;;;;;7.70;5.90;;;;;;;2.08;91.96;96879.38;5083544;28;20035;-46
2021/11/06 08:33:04;;;;;;;5.88;4.93;;;;;;;2.07;91.20;96871.66;5084641;28;20032;-53
2021/11/06 08:35:30;;;;;;;5.40;4.43;;;;;;;2.13;nan;96874.03;5083902;28;20032;-52
2021/11/06 08:37:58;;;;;;;5.72;4.75;;;;;;;2.18;89.91;96866.88;5068326;28;20066;-51
2021/11/06 08:40:25;;;;;;;6.57;5.25;;;;;;;2.28;90.88;96870.78;5087223;28;20044;-53
2021/11/06 08:42:51;;;;;;;4.65;4.35;;;;;;;2.34;89.54;96871.47;5087510;28;20059;-48
2021/11/06 08:45:17;;;;;;;4.13;3.83;;;;;;;2.45;89.22;96871.03;5084147;28;20048;-48
2021/11/06 08:47:43;;;;;;;6.32;5.72;;;;;;;2.53;88.92;96863.75;5083423;28;20036;-47
2021/11/06 08:50:13;;;;;;;4.65;4.25;;;;;;;2.65;88.17;96863.25;5079796;28;20111;-47
2021/11/06 08:52:40;;;;;;;6.45;5.85;;;;;;;2.69;87.22;96863.97;5088770;28;20024;-50
2021/11/06 08:55:06;;;;;;;5.90;5.40;;;;;;;2.68;86.85;96860.53;5086938;28;20481;-46
2021/11/06 08:57:34;;;;;;;6.80;6.10;;;;;;;2.82;87.50;96859.06;5088606;28;20085;-50
2021/11/06 09:00:05;;;;;;;6.65;6.05;;;;;;;2.90;86.73;96858.75;5087350;28;20557;-49
2021/11/06 09:02:31;;;;;;;5.65;5.13;;;;;;;3.07;86.28;96856.28;5083831;28;20438;-47
2021/11/06 09:04:57;;;;;;;5.43;4.93;;;;;;;3.24;84.62;96859.91;5074409;28;20040;-48
2021/11/06 09:07:22;;;;;;;5.60;5.05;;;;;;;3.36;84.47;96854.13;5087066;28;20067;-47
2021/11/06 09:09:48;;;;;;;5.97;5.47;;;;;;;3.49;84.37;96854.44;5071242;28;20032;-50
2021/11/06 09:12:13;;;;;;;6.07;4.97;;;;;;;3.56;84.16;96866.28;5085222;28;20032;-49
2021/11/06 09:14:39;;;;;;;6.97;5.18;;;;;;;3.61;83.66;96857.41;5082262;28;20083;-46
2021/11/06 09:17:05;;;;;;;8.82;5.32;;;;;;;3.71;83.44;96858.66;5084259;28;20542;-51
2021/11/06 09:19:30;;;;;;;7.72;5.57;;;;;;;3.80;83.50;96866.06;5088556;28;20090;-54
2021/11/06 09:21:56;;;;;;;8.75;7.53;;;;;;;3.82;81.52;96864.22;5088488;28;20028;-48
2021/11/06 09:24:21;;;;;;;7.20;6.03;;;;;;;3.84;83.06;96854.56;5088213;28;20383;-49
2021/11/06 09:26:47;;;;;;;6.30;5.70;;;;;;;3.95;82.53;96861.03;5087906;28;20058;-49
2021/11/06 09:29:14;;;;;;;7.85;5.97;;;;;;;3.94;81.31;96857.59;5088392;28;20272;-49
2021/11/06 09:31:41;;;;;;;8.15;6.43;;;;;;;3.94;82.50;96860.19;5088096;28;20106;-53
2021/11/06 09:34:08;;;;;;;6.85;6.15;;;;;;;3.91;82.95;96860.34;5088656;28;20083;-47
2021/11/06 09:36:34;;;;;;;7.07;5.75;;;;;;;3.97;82.22;96865.25;5088061;28;20044;-47
2021/11/06 09:39:02;;;;;;;7.45;6.75;;;;;;;3.83;82.81;96872.88;5087940;28;20048;-50
2021/11/06 09:41:28;;;;;;;7.05;6.45;;;;;;;3.86;82.37;96860.56;5087026;28;20048;-46
2021/11/06 09:43:54;;;;;;;7.05;6.28;;;;;;;3.90;81.79;96868.22;5083798;28;20498;-49
2021/11/06 09:46:19;;;;;;;14.57;10.40;;;;;;;4.21;81.18;96865.00;5083630;28;20055;-49
2021/11/06 09:48:47;;;;;;;10.43;7.40;;;;;;;4.41;79.76;96866.63;5087486;28;20024;-48
2021/11/06 09:51:14;;;;;;;9.77;5.90;;;;;;;4.88;78.71;96862.59;5087581;28;20085;-46
2021/11/06 09:53:41;;;;;;;11.32;6.53;;;;;;;5.37;77.77;96862.75;5088455;28;20039;-47
2021/11/06 09:56:09;;;;;;;9.50;6.70;;;;;;;5.65;75.69;96867.38;5088047;28;20344;-51
2021/11/06 09:58:35;;;;;;;5.65;5.15;;;;;;;5.71;74.08;96864.41;5087787;28;20024;-46
2021/11/06 10:01:01;;;;;;;9.75;8.30;;;;;;;5.83;73.86;96869.88;5087881;28;20039;-52
2021/11/06 10:03:27;;;;;;;7.30;5.88;;;;;;;6.02;73.41;96867.16;5083660;28;20032;-52
2021/11/06 10:05:58;;;;;;;4.40;4.00;;;;;;;6.20;71.43;96862.66;5093039;28;20461;-50
2021/11/06 10:08:36;;;;;;;4.90;4.45;;;;;;;6.50;70.76;96859.22;5072121;28;20035;-47
2021/11/06 10:11:09;;;;;;;3.70;3.42;;;;;;;6.83;69.56;96855.59;5086843;28;20063;-52
2021/11/06 10:13:54;;;;;;;3.78;3.47;;;;;;;7.26;68.58;96859.22;5089407;28;20040;-51
2021/11/06 10:16:42;;;;;;;3.38;3.08;;;;;;;7.42;65.91;96852.13;5090050;28;20035;-48
2021/11/06 10:19:13;;;;;;;4.38;3.90;;;;;;;7.77;64.51;96855.25;5081313;28;20040;-52
2021/11/06 10:21:51;;;;;;;3.78;3.33;;;;;;;8.04;64.03;96852.69;5086029;28;20031;-51
2021/11/06 10:24:37;;;;;;;7.18;3.85;;;;;;;8.07;63.81;96856.88;5084461;28;20036;-50
2021/11/06 10:27:24;;;;;;;4.72;4.18;;;;;;;8.16;61.68;96851.06;5086772;28;20101;-51
2021/11/06 10:30:26;;;;;;;4.10;3.80;;;;;;;8.10;62.76;96847.03;5081983;28;20483;-48
2021/11/06 10:33:19;;;;;;;3.35;3.15;;;;;;;8.30;62.16;96848.41;5060365;28;20085;-51
2021/11/06 10:35:47;;;;;;;4.68;3.70;;;;;;;8.09;61.18;96845.38;5085307;28;20552;-49
2021/11/06 10:38:21;;;;;;;3.75;3.45;;;;;;;7.75;61.22;96842.28;5091914;28;20115;-51
2021/11/06 10:40:56;;;;;;;4.93;4.50;;;;;;;7.88;61.39;96837.09;5089697;28;20040;-46
2021/11/06 10:43:24;;;;;;;3.63;3.33;;;;;;;7.89;61.61;96838.78;5090918;28;20495;-46
2021/11/06 10:45:54;;;;;;;3.00;2.80;;;;;;;7.99;59.42;96837.25;5091887;28;20035;-46
2021/11/06 10:48:25;;;;;;;4.45;3.95;;;;;;;7.81;61.48;96836.63;5083993;28;20041;-46
2021/11/06 10:50:58;;;;;;;3.20;3.00;;;;;;;7.94;60.38;96827.97;5091303;28;20043;-46
2021/11/06 10:53:30;;;;;;;4.05;3.75;;;;;;;7.96;60.48;96834.00;5090027;28;20131;-45
2021/11/06 10:55:56;;;;;;;3.10;2.90;;;;;;;7.88;60.03;96827.44;5086340;28;20111;-47
2021/11/06 10:58:29;;;;;;;2.92;2.72;;;;;;;8.09;58.97;96823.56;5087350;28;20032;-50
2021/11/06 11:00:59;;;;;;;2.95;2.75;;;;;;;8.17;56.49;96818.66;5090648;28;20422;-46
2021/11/06 11:03:28;;;;;;;2.83;2.67;;;;;;;8.13;56.96;96812.75;5091581;28;20028;-46
2021/11/06 11:05:55;;;;;;;2.67;2.50;;;;;;;8.21;55.35;96812.25;5091508;28;20030;-49
2021/11/06 11:08:20;;;;;;;2.70;2.58;;;;;;;8.33;55.66;96805.34;5077921;28;20489;-48
2021/11/06 11:10:46;;;;;;;3.03;2.83;;;;;;;8.26;57.35;96807.53;5089746;28;20056;-53
2021/11/06 11:13:18;;;;;;;3.47;3.17;;;;;;;8.50;56.57;96801.66;5085716;28;20450;-57
2021/11/06 11:15:50;;;;;;;2.92;2.72;;;;;;;8.48;56.70;96800.06;5082973;28;20103;-57
2021/11/06 11:18:36;;;;;;;3.33;3.00;;;;;;;8.35;58.08;96802.66;5086995;28;20036;-57
2021/11/06 11:21:25;;;;;;;2.60;2.40;;;;;;;8.32;56.43;96795.81;5068214;28;20051;-58
2021/11/06 11:23:58;;;;;;;3.42;3.13;;;;;;;8.53;56.70;96805.88;5088764;28;20043;-55
2021/11/06 11:26:44;;;;;;;2.75;2.55;;;;;;;8.64;54.72;96792.88;5087373;28;20521;-54
2021/11/06 11:29:12;;;;;;;2.70;2.50;;;;;;;8.57;56.25;96795.06;5086745;28;20032;-56
2021/11/06 11:31:39;;;;;;;2.72;2.53;;;;;;;8.75;56.63;96789.53;5087581;28;20486;-52
2021/11/06 11:34:10;;;;;;;2.35;2.25;;;;;;;8.70;55.82;96795.09;5088948;28;20051;-55
2021/11/06 11:36:37;;;;;;;2.55;2.35;;;;;;;8.62;56.72;96799.16;5069828;28;20032;-55
2021/11/06 11:39:08;;;;;;;2.75;2.55;;;;;;;8.65;55.87;96788.47;5080328;28;20135;-54